createdAt,value
2017-07-30T00:00:34.806Z,0
2017-07-30T00:01:35.461Z,0
2017-07-30T00:02:36.152Z,0
2017-07-30T00:03:37.106Z,0
2017-07-30T00:04:37.759Z,0
2017-07-30T00:05:38.414Z,0
2017-07-30T00:06:39.068Z,0
2017-07-30T00:07:39.723Z,0
2017-07-30T00:08:40.679Z,0
2017-07-30T00:09:41.335Z,0
2017-07-30T00:10:41.989Z,0
2017-07-30T00:11:42.642Z,0
2017-07-30T00:12:43.299Z,0
2017-07-30T00:13:44.203Z,0
2017-07-30T00:14:44.856Z,0
2017-07-30T00:15:45.513Z,0
2017-07-30T00:16:46.168Z,0
2017-07-30T00:17:46.820Z,0
2017-07-30T00:18:47.728Z,0
2017-07-30T00:19:48.382Z,0
2017-07-30T00:20:49.041Z,0
2017-07-30T00:21:49.693Z,0
2017-07-30T00:22:50.347Z,0
2017-07-30T00:23:51.301Z,0
2017-07-30T00:24:51.956Z,0
2017-07-30T00:25:52.610Z,0
2017-07-30T00:26:53.263Z,0
2017-07-30T00:27:53.921Z,0
2017-07-30T00:28:54.824Z,0
2017-07-30T00:29:55.478Z,0
2017-07-30T00:30:56.134Z,0
2017-07-30T00:31:56.787Z,0
2017-07-30T00:32:57.443Z,0
2017-07-30T00:33:58.399Z,0
2017-07-30T00:34:59.052Z,0
2017-07-30T00:35:59.706Z,0
2017-07-30T00:37:00.362Z,0
2017-07-30T00:38:01.016Z,0
2017-07-30T00:39:01.921Z,0
2017-07-30T00:40:02.577Z,0
2017-07-30T00:41:03.230Z,0
2017-07-30T00:42:03.885Z,0
2017-07-30T00:43:04.541Z,0
2017-07-30T00:44:05.484Z,0
2017-07-30T00:45:06.174Z,0
2017-07-30T00:46:06.828Z,0
2017-07-30T00:47:07.485Z,0
2017-07-30T00:48:08.176Z,0
2017-07-30T00:49:09.129Z,0
2017-07-30T00:50:09.785Z,0
2017-07-30T00:51:10.439Z,0
2017-07-30T00:52:11.096Z,0
2017-07-30T00:53:11.751Z,0
2017-07-30T00:54:12.656Z,0
2017-07-30T00:55:13.311Z,0
2017-07-30T00:56:14.010Z,0
2017-07-30T00:57:14.663Z,0
2017-07-30T00:58:15.319Z,0
2017-07-30T00:59:16.308Z,0
2017-07-30T01:00:16.963Z,0
2017-07-30T01:01:17.618Z,0
2017-07-30T01:02:18.271Z,0
2017-07-30T01:03:18.926Z,0
2017-07-30T01:04:19.832Z,0
2017-07-30T01:05:20.487Z,0
2017-07-30T01:06:21.140Z,0
2017-07-30T01:07:21.800Z,0
2017-07-30T01:08:22.449Z,0
2017-07-30T01:09:23.403Z,0
2017-07-30T01:10:24.095Z,0
2017-07-30T01:11:24.749Z,0
2017-07-30T01:12:25.402Z,0
2017-07-30T01:13:26.059Z,0
2017-07-30T01:14:26.966Z,0
2017-07-30T01:15:27.616Z,0
2017-07-30T01:16:28.268Z,0
2017-07-30T01:17:28.923Z,0
2017-07-30T01:18:29.576Z,0
2017-07-30T01:19:30.481Z,0
2017-07-30T01:20:31.135Z,0
2017-07-30T01:21:31.790Z,0
2017-07-30T01:22:32.443Z,0
2017-07-30T01:23:33.099Z,0
2017-07-30T01:24:34.002Z,0
2017-07-30T01:25:34.655Z,0
2017-07-30T01:26:35.308Z,0
2017-07-30T01:27:35.967Z,0
2017-07-30T01:28:36.619Z,0
2017-07-30T01:29:37.524Z,0
2017-07-30T01:30:38.181Z,0
2017-07-30T01:31:38.836Z,0
2017-07-30T01:32:39.489Z,0
2017-07-30T01:33:40.144Z,0
2017-07-30T01:34:41.098Z,0
2017-07-30T01:35:41.751Z,0
2017-07-30T01:36:42.406Z,0
2017-07-30T01:37:43.061Z,0
2017-07-30T01:38:43.715Z,0
2017-07-30T01:39:44.617Z,0
2017-07-30T01:40:45.272Z,0
2017-07-30T01:41:45.927Z,0
2017-07-30T01:42:46.579Z,0
2017-07-30T01:43:47.234Z,0
2017-07-30T01:44:48.136Z,0
2017-07-30T01:45:48.792Z,0
2017-07-30T01:46:49.447Z,0
2017-07-30T01:47:50.100Z,0
2017-07-30T01:48:50.792Z,0
2017-07-30T01:49:51.697Z,0
2017-07-30T01:50:52.350Z,0
2017-07-30T01:51:53.004Z,0
2017-07-30T01:52:53.659Z,0
2017-07-30T01:53:54.313Z,0
2017-07-30T01:54:55.228Z,0
2017-07-30T01:55:55.882Z,0
2017-07-30T01:56:56.536Z,0
2017-07-30T01:57:57.190Z,0
2017-07-30T01:58:57.846Z,0
2017-07-30T01:59:58.836Z,0
2017-07-30T02:00:59.496Z,0
2017-07-30T02:02:00.142Z,0
2017-07-30T02:03:00.797Z,0
2017-07-30T02:04:01.450Z,0
2017-07-30T02:05:02.354Z,0
2017-07-30T02:06:03.008Z,0
2017-07-30T02:07:03.663Z,0
2017-07-30T02:08:04.317Z,0
2017-07-30T02:09:04.971Z,0
2017-07-30T02:10:05.926Z,0
2017-07-30T02:11:06.579Z,0
2017-07-30T02:12:07.233Z,0
2017-07-30T02:13:07.887Z,0
2017-07-30T02:14:08.542Z,0
2017-07-30T02:15:09.445Z,0
2017-07-30T02:16:10.100Z,0
2017-07-30T02:17:10.754Z,0
2017-07-30T02:18:11.408Z,0
2017-07-30T02:19:12.065Z,0
2017-07-30T02:20:13.016Z,0
2017-07-30T02:21:13.669Z,0
2017-07-30T02:22:14.327Z,0
2017-07-30T02:23:14.980Z,0
2017-07-30T02:24:15.635Z,0
2017-07-30T02:25:16.554Z,0
2017-07-30T02:26:17.233Z,0
2017-07-30T02:27:17.887Z,0
2017-07-30T02:28:18.540Z,0
2017-07-30T02:29:19.194Z,0
2017-07-30T02:30:20.148Z,0
2017-07-30T02:31:20.802Z,0
2017-07-30T02:32:21.458Z,0
2017-07-30T02:33:22.147Z,0
2017-07-30T02:34:22.801Z,0
2017-07-30T02:35:23.792Z,0
2017-07-30T02:36:24.447Z,0
2017-07-30T02:37:25.102Z,0
2017-07-30T02:38:25.755Z,0
2017-07-30T02:39:26.416Z,0
2017-07-30T02:40:27.365Z,0
2017-07-30T02:41:28.019Z,0
2017-07-30T02:42:28.673Z,0
2017-07-30T02:43:29.326Z,0
2017-07-30T02:44:29.981Z,0
2017-07-30T02:45:30.935Z,0
2017-07-30T02:46:31.588Z,0
2017-07-30T02:47:32.243Z,0
2017-07-30T02:48:32.896Z,0
2017-07-30T02:49:33.551Z,0
2017-07-30T02:50:34.508Z,0
2017-07-30T02:51:35.162Z,0
2017-07-30T02:52:35.817Z,0
2017-07-30T02:53:36.475Z,0
2017-07-30T02:54:37.126Z,0
2017-07-30T02:55:38.086Z,0
2017-07-30T02:56:38.740Z,0
2017-07-30T02:57:39.396Z,0
2017-07-30T02:58:40.049Z,0
2017-07-30T02:59:40.703Z,0
2017-07-30T03:00:41.658Z,4
2017-07-30T03:01:42.348Z,4
2017-07-30T03:02:43.004Z,4
2017-07-30T03:03:43.658Z,0
2017-07-30T03:04:44.313Z,4
2017-07-30T03:05:45.269Z,4
2017-07-30T03:06:45.922Z,4
2017-07-30T03:07:46.578Z,4
2017-07-30T03:08:47.234Z,4
2017-07-30T03:09:47.885Z,8
2017-07-30T03:10:48.790Z,8
2017-07-30T03:11:49.446Z,12
2017-07-30T03:12:50.102Z,12
2017-07-30T03:13:50.762Z,16
2017-07-30T03:14:51.416Z,16
2017-07-30T03:15:52.372Z,16
2017-07-30T03:16:53.028Z,24
2017-07-30T03:17:53.682Z,24
2017-07-30T03:18:54.337Z,28
2017-07-30T03:19:54.992Z,32
2017-07-30T03:20:55.898Z,36
2017-07-30T03:21:56.553Z,44
2017-07-30T03:22:57.207Z,52
2017-07-30T03:23:57.864Z,56
2017-07-30T03:24:58.519Z,68
2017-07-30T03:25:59.425Z,76
2017-07-30T03:27:00.082Z,88
2017-07-30T03:28:00.739Z,96
2017-07-30T03:29:01.397Z,108
2017-07-30T03:30:02.054Z,124
2017-07-30T03:31:02.961Z,136
2017-07-30T03:32:03.617Z,156
2017-07-30T03:33:04.273Z,172
2017-07-30T03:34:04.930Z,192
2017-07-30T03:35:05.586Z,212
2017-07-30T03:36:06.493Z,232
2017-07-30T03:37:07.152Z,256
2017-07-30T03:38:07.808Z,280
2017-07-30T03:39:08.466Z,300
2017-07-30T03:40:09.122Z,328
2017-07-30T03:41:10.029Z,356
2017-07-30T03:42:10.685Z,384
2017-07-30T03:43:11.343Z,412
2017-07-30T03:44:12.000Z,448
2017-07-30T03:45:12.656Z,476
2017-07-30T03:46:13.563Z,508
2017-07-30T03:47:14.220Z,540
2017-07-30T03:48:14.879Z,576
2017-07-30T03:49:15.537Z,612
2017-07-30T03:50:16.195Z,648
2017-07-30T03:51:17.105Z,684
2017-07-30T03:52:17.763Z,720
2017-07-30T03:53:18.420Z,756
2017-07-30T03:54:19.078Z,792
2017-07-30T03:55:19.734Z,832
2017-07-30T03:56:20.695Z,864
2017-07-30T03:57:21.351Z,904
2017-07-30T03:58:22.008Z,940
2017-07-30T03:59:22.666Z,976
2017-07-30T04:00:23.326Z,1016
2017-07-30T04:01:24.286Z,1056
2017-07-30T04:02:24.944Z,1096
2017-07-30T04:03:25.603Z,1132
2017-07-30T04:04:26.261Z,1168
2017-07-30T04:05:26.920Z,1212
2017-07-30T04:06:27.879Z,1244
2017-07-30T04:07:28.537Z,1284
2017-07-30T04:08:29.196Z,1324
2017-07-30T04:09:29.855Z,1364
2017-07-30T04:10:30.549Z,1396
2017-07-30T04:11:31.508Z,1432
2017-07-30T04:12:32.167Z,1472
2017-07-30T04:13:32.826Z,1500
2017-07-30T04:14:33.487Z,1536
2017-07-30T04:15:34.145Z,1576
2017-07-30T04:16:35.108Z,1604
2017-07-30T04:17:35.762Z,1644
2017-07-30T04:18:36.419Z,1672
2017-07-30T04:19:37.115Z,1700
2017-07-30T04:20:37.773Z,1728
2017-07-30T04:21:38.769Z,1756
2017-07-30T04:22:39.428Z,1800
2017-07-30T04:23:40.089Z,1828
2017-07-30T04:24:40.746Z,1860
2017-07-30T04:25:41.440Z,1904
2017-07-30T04:26:42.349Z,1944
2017-07-30T04:27:43.008Z,2004
2017-07-30T04:28:43.667Z,2068
2017-07-30T04:29:44.326Z,2136
2017-07-30T04:30:44.985Z,2200
2017-07-30T04:31:46.196Z,2256
2017-07-30T04:32:46.853Z,2320
2017-07-30T04:33:47.512Z,2404
2017-07-30T04:34:48.171Z,2492
2017-07-30T04:35:48.831Z,2580
2017-07-30T04:36:49.740Z,2624
2017-07-30T04:37:50.400Z,2676
2017-07-30T04:38:51.059Z,2680
2017-07-30T04:39:51.720Z,2696
2017-07-30T04:40:52.379Z,2708
2017-07-30T04:41:53.287Z,2708
2017-07-30T04:42:53.945Z,2644
2017-07-30T04:43:54.605Z,2628
2017-07-30T04:44:55.263Z,2612
2017-07-30T04:45:55.923Z,2544
2017-07-30T04:46:56.885Z,2564
2017-07-30T04:47:57.544Z,2548
2017-07-30T04:48:58.205Z,2464
2017-07-30T04:49:58.862Z,2412
2017-07-30T04:50:59.520Z,2312
2017-07-30T04:52:00.433Z,2272
2017-07-30T04:53:01.089Z,2292
2017-07-30T04:54:01.748Z,2320
2017-07-30T04:55:02.411Z,2376
2017-07-30T04:56:03.067Z,2440
2017-07-30T04:57:03.975Z,2504
2017-07-30T04:58:04.634Z,2588
2017-07-30T04:59:05.292Z,2672
2017-07-30T05:00:05.952Z,2760
2017-07-30T05:01:06.610Z,2860
2017-07-30T05:02:07.521Z,2944
2017-07-30T05:03:08.180Z,3044
2017-07-30T05:04:08.875Z,3120
2017-07-30T05:05:09.534Z,3184
2017-07-30T05:06:10.193Z,3236
2017-07-30T05:07:11.101Z,3308
2017-07-30T05:08:11.760Z,3380
2017-07-30T05:09:12.420Z,3480
2017-07-30T05:10:13.078Z,3748
2017-07-30T05:11:13.741Z,3756
2017-07-30T05:12:14.646Z,3740
2017-07-30T05:13:15.307Z,3664
2017-07-30T05:14:15.965Z,3456
2017-07-30T05:15:16.623Z,3232
2017-07-30T05:16:17.283Z,3240
2017-07-30T05:17:18.192Z,3268
2017-07-30T05:18:18.850Z,3352
2017-07-30T05:19:19.514Z,3512
2017-07-30T05:20:20.173Z,3688
2017-07-30T05:21:20.832Z,3876
2017-07-30T05:22:21.793Z,4092
2017-07-30T05:23:22.453Z,4316
2017-07-30T05:24:23.112Z,4372
2017-07-30T05:25:23.808Z,4404
2017-07-30T05:26:24.466Z,4432
2017-07-30T05:27:25.429Z,4548
2017-07-30T05:28:26.087Z,4348
2017-07-30T05:29:26.746Z,4036
2017-07-30T05:30:27.405Z,4004
2017-07-30T05:31:28.064Z,3932
2017-07-30T05:32:28.975Z,4224
2017-07-30T05:33:29.635Z,4508
2017-07-30T05:34:30.295Z,4976
2017-07-30T05:35:30.993Z,5208
2017-07-30T05:36:31.657Z,5484
2017-07-30T05:37:32.614Z,5652
2017-07-30T05:38:33.278Z,5812
2017-07-30T05:39:33.976Z,5824
2017-07-30T05:40:34.650Z,5844
2017-07-30T05:41:35.297Z,5844
2017-07-30T05:42:36.257Z,5680
2017-07-30T05:43:36.918Z,5572
2017-07-30T05:44:37.578Z,5444
2017-07-30T05:45:38.239Z,5532
2017-07-30T05:46:38.900Z,5688
2017-07-30T05:47:40.114Z,5756
2017-07-30T05:48:40.773Z,5688
2017-07-30T05:49:41.434Z,5556
2017-07-30T05:50:42.094Z,5316
2017-07-30T05:51:42.757Z,5064
2017-07-30T05:52:43.670Z,4996
2017-07-30T05:53:44.330Z,4904
2017-07-30T05:54:44.992Z,4776
2017-07-30T05:55:45.652Z,4712
2017-07-30T05:56:46.313Z,4232
2017-07-30T05:57:47.276Z,4196
2017-07-30T05:58:47.938Z,4272
2017-07-30T05:59:48.597Z,4324
2017-07-30T06:00:49.259Z,4420
2017-07-30T06:01:49.919Z,4500
2017-07-30T06:02:50.880Z,4688
2017-07-30T06:03:51.545Z,4768
2017-07-30T06:04:52.205Z,4828
2017-07-30T06:05:52.864Z,4908
2017-07-30T06:06:53.526Z,5012
2017-07-30T06:07:54.475Z,5052
2017-07-30T06:08:55.135Z,4916
2017-07-30T06:09:55.796Z,4868
2017-07-30T06:10:56.457Z,4968
2017-07-30T06:11:57.119Z,5440
2017-07-30T06:12:58.031Z,5340
2017-07-30T06:13:58.694Z,5604
2017-07-30T06:14:59.394Z,5524
2017-07-30T06:16:00.089Z,5664
2017-07-30T06:17:00.751Z,5552
2017-07-30T06:18:01.711Z,6080
2017-07-30T06:19:02.372Z,6276
2017-07-30T06:20:03.033Z,6072
2017-07-30T06:21:03.693Z,6296
2017-07-30T06:22:04.356Z,6592
2017-07-30T06:23:05.316Z,6840
2017-07-30T06:24:06.024Z,7248
2017-07-30T06:25:06.673Z,6884
2017-07-30T06:26:07.337Z,7020
2017-07-30T06:27:08.033Z,6948
2017-07-30T06:28:08.994Z,6472
2017-07-30T06:29:09.664Z,6232
2017-07-30T06:30:10.315Z,6392
2017-07-30T06:31:10.979Z,6188
2017-07-30T06:32:11.639Z,6044
2017-07-30T06:33:12.550Z,5960
2017-07-30T06:34:13.211Z,5560
2017-07-30T06:35:13.871Z,5296
2017-07-30T06:36:14.533Z,5248
2017-07-30T06:37:15.194Z,5120
2017-07-30T06:38:16.103Z,5148
2017-07-30T06:39:16.763Z,5376
2017-07-30T06:40:17.425Z,6076
2017-07-30T06:41:18.087Z,6032
2017-07-30T06:42:18.748Z,6248
2017-07-30T06:43:19.659Z,6216
2017-07-30T06:44:20.320Z,6156
2017-07-30T06:45:20.984Z,6324
2017-07-30T06:46:21.662Z,6552
2017-07-30T06:47:22.311Z,6936
2017-07-30T06:48:23.268Z,7148
2017-07-30T06:49:23.929Z,7436
2017-07-30T06:50:24.591Z,7592
2017-07-30T06:51:25.253Z,7488
2017-07-30T06:52:25.913Z,7148
2017-07-30T06:53:26.825Z,6904
2017-07-30T06:54:27.486Z,6764
2017-07-30T06:55:28.154Z,6540
2017-07-30T06:56:28.812Z,6388
2017-07-30T06:57:29.473Z,6536
2017-07-30T06:58:30.434Z,6608
2017-07-30T06:59:31.095Z,6560
2017-07-30T07:00:31.756Z,6620
2017-07-30T07:01:32.420Z,6664
2017-07-30T07:02:33.134Z,6700
2017-07-30T07:03:34.098Z,6696
2017-07-30T07:04:34.759Z,6700
2017-07-30T07:05:35.420Z,6716
2017-07-30T07:06:36.081Z,6740
2017-07-30T07:07:36.744Z,6784
2017-07-30T07:08:37.656Z,6900
2017-07-30T07:09:38.318Z,7024
2017-07-30T07:10:38.977Z,7096
2017-07-30T07:11:39.639Z,7300
2017-07-30T07:12:40.301Z,7308
2017-07-30T07:13:41.265Z,7376
2017-07-30T07:14:41.928Z,7532
2017-07-30T07:15:42.588Z,7688
2017-07-30T07:16:43.257Z,7796
2017-07-30T07:17:43.919Z,7932
2017-07-30T07:18:44.829Z,8076
2017-07-30T07:19:45.492Z,8168
2017-07-30T07:20:46.154Z,8248
2017-07-30T07:21:46.815Z,8312
2017-07-30T07:22:47.476Z,8344
2017-07-30T07:23:48.390Z,7964
2017-07-30T07:24:49.052Z,8592
2017-07-30T07:25:49.714Z,8716
2017-07-30T07:26:50.394Z,8768
2017-07-30T07:27:51.057Z,8860
2017-07-30T07:28:51.969Z,8988
2017-07-30T07:29:52.631Z,9120
2017-07-30T07:30:53.294Z,9204
2017-07-30T07:31:53.956Z,9272
2017-07-30T07:32:54.617Z,9328
2017-07-30T07:33:55.580Z,9408
2017-07-30T07:34:56.243Z,9596
2017-07-30T07:35:56.913Z,9752
2017-07-30T07:36:57.574Z,9936
2017-07-30T07:37:58.238Z,10184
2017-07-30T07:38:59.239Z,10416
2017-07-30T07:39:59.905Z,10656
2017-07-30T07:41:00.566Z,10924
2017-07-30T07:42:01.229Z,11176
2017-07-30T07:43:01.892Z,11388
2017-07-30T07:44:02.857Z,11656
2017-07-30T07:45:03.520Z,11760
2017-07-30T07:46:04.183Z,11720
2017-07-30T07:47:04.846Z,11780
2017-07-30T07:48:05.510Z,12052
2017-07-30T07:49:06.480Z,12060
2017-07-30T07:50:07.140Z,12276
2017-07-30T07:51:07.804Z,12592
2017-07-30T07:52:08.469Z,12800
2017-07-30T07:53:09.131Z,12860
2017-07-30T07:54:10.145Z,13016
2017-07-30T07:55:10.809Z,13248
2017-07-30T07:56:11.476Z,13416
2017-07-30T07:57:12.136Z,13540
2017-07-30T07:58:12.801Z,13612
2017-07-30T07:59:13.766Z,13896
2017-07-30T08:00:14.428Z,14124
2017-07-30T08:01:15.093Z,14372
2017-07-30T08:02:15.756Z,14444
2017-07-30T08:03:16.419Z,14340
2017-07-30T08:04:17.386Z,14324
2017-07-30T08:05:18.052Z,14452
2017-07-30T08:06:18.719Z,14588
2017-07-30T08:07:19.381Z,14860
2017-07-30T08:08:20.046Z,14776
2017-07-30T08:09:20.959Z,15172
2017-07-30T08:10:21.627Z,15512
2017-07-30T08:11:22.291Z,15652
2017-07-30T08:12:22.984Z,15664
2017-07-30T08:13:23.620Z,15748
2017-07-30T08:14:24.534Z,16068
2017-07-30T08:15:25.198Z,16300
2017-07-30T08:16:25.864Z,16780
2017-07-30T08:17:26.528Z,17292
2017-07-30T08:18:27.193Z,18048
2017-07-30T08:19:28.107Z,18432
2017-07-30T08:20:28.773Z,18336
2017-07-30T08:21:29.437Z,18464
2017-07-30T08:22:30.108Z,18624
2017-07-30T08:23:30.771Z,18592
2017-07-30T08:24:31.735Z,18368
2017-07-30T08:25:32.398Z,18848
2017-07-30T08:26:33.063Z,19520
2017-07-30T08:27:33.728Z,19648
2017-07-30T08:28:34.392Z,19520
2017-07-30T08:29:35.359Z,19904
2017-07-30T08:30:36.025Z,20160
2017-07-30T08:31:36.690Z,20512
2017-07-30T08:32:37.356Z,20512
2017-07-30T08:33:38.018Z,20448
2017-07-30T08:34:38.934Z,20224
2017-07-30T08:35:39.598Z,20160
2017-07-30T08:36:40.266Z,20320
2017-07-30T08:37:40.966Z,20608
2017-07-30T08:38:41.632Z,20608
2017-07-30T08:39:42.547Z,20608
2017-07-30T08:40:43.213Z,20608
2017-07-30T08:41:43.878Z,20832
2017-07-30T08:42:44.541Z,21056
2017-07-30T08:43:45.207Z,21088
2017-07-30T08:44:46.172Z,20960
2017-07-30T08:45:46.837Z,20896
2017-07-30T08:46:47.517Z,21024
2017-07-30T08:47:48.182Z,21248
2017-07-30T08:48:48.847Z,21312
2017-07-30T08:49:49.815Z,21120
2017-07-30T08:50:50.481Z,21216
2017-07-30T08:51:51.150Z,21664
2017-07-30T08:52:51.813Z,22016
2017-07-30T08:53:52.476Z,22176
2017-07-30T08:54:53.390Z,21856
2017-07-30T08:55:54.054Z,21600
2017-07-30T08:56:54.719Z,21536
2017-07-30T08:57:55.383Z,21472
2017-07-30T08:58:56.048Z,21568
2017-07-30T08:59:56.963Z,21536
2017-07-30T09:00:57.627Z,21536
2017-07-30T09:01:58.293Z,21440
2017-07-30T09:02:58.964Z,21248
2017-07-30T09:03:59.660Z,20800
2017-07-30T09:05:00.576Z,20448
2017-07-30T09:06:01.239Z,20416
2017-07-30T09:07:01.905Z,20416
2017-07-30T09:08:02.571Z,20352
2017-07-30T09:09:03.235Z,20224
2017-07-30T09:10:04.202Z,19776
2017-07-30T09:11:04.865Z,19712
2017-07-30T09:12:05.530Z,19264
2017-07-30T09:13:06.195Z,19040
2017-07-30T09:14:06.861Z,18976
2017-07-30T09:15:07.826Z,18848
2017-07-30T09:16:08.490Z,19264
2017-07-30T09:17:09.190Z,19776
2017-07-30T09:18:09.857Z,19488
2017-07-30T09:19:10.523Z,19104
2017-07-30T09:20:11.439Z,18848
2017-07-30T09:21:12.103Z,18912
2017-07-30T09:22:12.768Z,18848
2017-07-30T09:23:13.433Z,18688
2017-07-30T09:24:14.097Z,18432
2017-07-30T09:25:15.013Z,18656
2017-07-30T09:26:15.677Z,19168
2017-07-30T09:27:16.340Z,18336
2017-07-30T09:28:17.006Z,17664
2017-07-30T09:29:17.669Z,16996
2017-07-30T09:30:18.586Z,16832
2017-07-30T09:31:19.252Z,16440
2017-07-30T09:32:19.924Z,16464
2017-07-30T09:33:20.576Z,15864
2017-07-30T09:34:21.240Z,16108
2017-07-30T09:35:22.157Z,15988
2017-07-30T09:36:22.820Z,15568
2017-07-30T09:37:23.484Z,15208
2017-07-30T09:38:24.185Z,15232
2017-07-30T09:39:24.851Z,15088
2017-07-30T09:40:25.817Z,14856
2017-07-30T09:41:26.485Z,14736
2017-07-30T09:42:27.149Z,14608
2017-07-30T09:43:27.814Z,14340
2017-07-30T09:44:28.479Z,14276
2017-07-30T09:45:29.443Z,14272
2017-07-30T09:46:30.107Z,14228
2017-07-30T09:47:30.773Z,14260
2017-07-30T09:48:31.440Z,14740
2017-07-30T09:49:32.104Z,14856
2017-07-30T09:50:33.054Z,15600
2017-07-30T09:51:33.720Z,15908
2017-07-30T09:52:34.387Z,30752
2017-07-30T09:53:35.052Z,58528
2017-07-30T09:54:35.715Z,89824
2017-07-30T09:55:36.684Z,109088
2017-07-30T09:56:37.388Z,115328
2017-07-30T09:57:38.054Z,122144
2017-07-30T09:58:38.720Z,120192
2017-07-30T09:59:39.388Z,112544
2017-07-30T10:00:40.358Z,111040
2017-07-30T10:01:41.025Z,108576
2017-07-30T10:02:41.691Z,94272
2017-07-30T10:03:42.359Z,111168
2017-07-30T10:04:43.028Z,115808
2017-07-30T10:05:43.945Z,119584
2017-07-30T10:06:44.616Z,123456
2017-07-30T10:07:45.284Z,118624
2017-07-30T10:08:45.952Z,108288
2017-07-30T10:09:46.619Z,104928
2017-07-30T10:10:47.587Z,117152
2017-07-30T10:11:48.257Z,100128
2017-07-30T10:12:48.929Z,113824
2017-07-30T10:13:49.632Z,120288
2017-07-30T10:14:50.305Z,121728
2017-07-30T10:15:51.276Z,120832
2017-07-30T10:16:51.948Z,120768
2017-07-30T10:17:52.615Z,121152
2017-07-30T10:18:53.286Z,113856
2017-07-30T10:19:53.955Z,107552
2017-07-30T10:20:54.876Z,111200
2017-07-30T10:21:55.585Z,111104
2017-07-30T10:22:56.257Z,111968
2017-07-30T10:23:56.930Z,112768
2017-07-30T10:24:57.598Z,111360
2017-07-30T10:25:58.520Z,111232
2017-07-30T10:26:59.190Z,114720
2017-07-30T10:27:59.896Z,120736
2017-07-30T10:29:00.567Z,120576
2017-07-30T10:30:01.240Z,119360
2017-07-30T10:31:02.163Z,117536
2017-07-30T10:32:02.832Z,117568
2017-07-30T10:33:03.506Z,119744
2017-07-30T10:34:04.208Z,121376
2017-07-30T10:35:04.880Z,121248
2017-07-30T10:36:05.809Z,111648
2017-07-30T10:37:06.512Z,107616
2017-07-30T10:38:07.219Z,114240
2017-07-30T10:39:07.891Z,110208
2017-07-30T10:40:08.561Z,113312
2017-07-30T10:41:09.483Z,118944
2017-07-30T10:42:10.156Z,120832
2017-07-30T10:43:10.830Z,120384
2017-07-30T10:44:11.497Z,118624
2017-07-30T10:45:12.170Z,115584
2017-07-30T10:46:13.143Z,114912
2017-07-30T10:47:13.816Z,117344
2017-07-30T10:48:14.488Z,117600
2017-07-30T10:49:15.161Z,116544
2017-07-30T10:50:15.836Z,120896
2017-07-30T10:51:16.811Z,118272
2017-07-30T10:52:17.484Z,114208
2017-07-30T10:53:18.158Z,118432
2017-07-30T10:54:18.834Z,118336
2017-07-30T10:55:19.500Z,111168
2017-07-30T10:56:20.476Z,115104
2017-07-30T10:57:21.146Z,115296
2017-07-30T10:58:21.818Z,117632
2017-07-30T10:59:22.491Z,118848
2017-07-30T11:00:23.165Z,121472
2017-07-30T11:01:24.150Z,121728
2017-07-30T11:02:24.821Z,121472
2017-07-30T11:03:25.495Z,119648
2017-07-30T11:04:26.169Z,117376
2017-07-30T11:05:26.844Z,112992
2017-07-30T11:06:27.766Z,103648
2017-07-30T11:07:28.445Z,116896
2017-07-30T11:08:29.113Z,119040
2017-07-30T11:09:29.785Z,120640
2017-07-30T11:10:30.458Z,121600
2017-07-30T11:11:31.380Z,123840
2017-07-30T11:12:32.055Z,122752
2017-07-30T11:13:32.726Z,120576
2017-07-30T11:14:33.400Z,122400
2017-07-30T11:15:34.072Z,121152
2017-07-30T11:16:34.996Z,122784
2017-07-30T11:17:35.669Z,124480
2017-07-30T11:18:36.343Z,119904
2017-07-30T11:19:37.018Z,119360
2017-07-30T11:20:37.715Z,121344
2017-07-30T11:21:38.703Z,120864
2017-07-30T11:22:39.377Z,67552
2017-07-30T11:23:40.051Z,125888
2017-07-30T11:24:40.724Z,122432
2017-07-30T11:25:41.397Z,122816
2017-07-30T11:26:42.372Z,123840
2017-07-30T11:27:43.047Z,123520
2017-07-30T11:28:43.722Z,124224
2017-07-30T11:29:44.398Z,119008
2017-07-30T11:30:45.073Z,118816
2017-07-30T11:31:45.997Z,124512
2017-07-30T11:32:46.673Z,120800
2017-07-30T11:33:47.344Z,121632
2017-07-30T11:34:48.017Z,121408
2017-07-30T11:35:48.690Z,122432
2017-07-30T11:36:49.615Z,122976
2017-07-30T11:37:50.289Z,124448
2017-07-30T11:38:50.962Z,116160
2017-07-30T11:39:51.636Z,121728
2017-07-30T11:40:52.313Z,121344
2017-07-30T11:41:53.237Z,119040
2017-07-30T11:42:53.950Z,120032
2017-07-30T11:43:54.661Z,115712
2017-07-30T11:44:55.334Z,102784
2017-07-30T11:45:56.007Z,102816
2017-07-30T11:46:56.982Z,111232
2017-07-30T11:47:57.659Z,118496
2017-07-30T11:48:58.369Z,119904
2017-07-30T11:49:59.046Z,110944
2017-07-30T11:50:59.722Z,109696
2017-07-30T11:52:00.647Z,102368
2017-07-30T11:53:01.321Z,96864
2017-07-30T11:54:01.994Z,105952
2017-07-30T11:55:02.669Z,104096
2017-07-30T11:56:03.343Z,94112
2017-07-30T11:57:04.314Z,92448
2017-07-30T11:58:04.987Z,89024
2017-07-30T11:59:05.662Z,99424
2017-07-30T12:00:06.334Z,100608
2017-07-30T12:01:07.007Z,96768
2017-07-30T12:02:07.979Z,94976
2017-07-30T12:03:08.652Z,97632
2017-07-30T12:04:09.324Z,95328
2017-07-30T12:05:10.032Z,97344
2017-07-30T12:06:10.703Z,94816
2017-07-30T12:07:11.677Z,99264
2017-07-30T12:08:12.350Z,88320
2017-07-30T12:09:13.026Z,98528
2017-07-30T12:10:13.697Z,98976
2017-07-30T12:11:14.370Z,96960
2017-07-30T12:12:15.294Z,86688
2017-07-30T12:13:15.969Z,102112
2017-07-30T12:14:16.641Z,89472
2017-07-30T12:15:17.315Z,59168
2017-07-30T12:16:17.987Z,85952
2017-07-30T12:17:18.912Z,88128
2017-07-30T12:18:19.586Z,76224
2017-07-30T12:19:20.262Z,81408
2017-07-30T12:20:20.970Z,78208
2017-07-30T12:21:21.643Z,78112
2017-07-30T12:22:22.565Z,77376
2017-07-30T12:23:23.240Z,75264
2017-07-30T12:24:23.915Z,73120
2017-07-30T12:25:24.588Z,69984
2017-07-30T12:26:25.262Z,66752
2017-07-30T12:27:26.235Z,67040
2017-07-30T12:28:26.910Z,64448
2017-07-30T12:29:27.583Z,69024
2017-07-30T12:30:28.257Z,62592
2017-07-30T12:31:28.932Z,63040
2017-07-30T12:32:29.956Z,61728
2017-07-30T12:33:30.632Z,60480
2017-07-30T12:34:31.341Z,60896
2017-07-30T12:35:32.016Z,59584
2017-07-30T12:36:32.690Z,57408
2017-07-30T12:37:33.623Z,57824
2017-07-30T12:38:34.300Z,59072
2017-07-30T12:39:35.010Z,56864
2017-07-30T12:40:35.685Z,53024
2017-07-30T12:41:36.359Z,56032
2017-07-30T12:42:37.282Z,57440
2017-07-30T12:43:37.955Z,59744
2017-07-30T12:44:38.633Z,57664
2017-07-30T12:45:39.307Z,61344
2017-07-30T12:46:39.980Z,37888
2017-07-30T12:47:40.903Z,58176
2017-07-30T12:48:41.577Z,56928
2017-07-30T12:49:42.250Z,59200
2017-07-30T12:50:42.924Z,26496
2017-07-30T12:51:43.617Z,61344
2017-07-30T12:52:44.536Z,43264
2017-07-30T12:53:45.209Z,64544
2017-07-30T12:54:45.880Z,30752
2017-07-30T12:55:46.553Z,42336
2017-07-30T12:56:47.224Z,44864
2017-07-30T12:57:48.147Z,55072
2017-07-30T12:58:48.826Z,58016
2017-07-30T12:59:49.498Z,58944
2017-07-30T13:00:50.170Z,56352
2017-07-30T13:01:50.844Z,53120
2017-07-30T13:02:51.768Z,55968
2017-07-30T13:03:52.437Z,56160
2017-07-30T13:04:53.143Z,49216
2017-07-30T13:05:53.814Z,47104
2017-07-30T13:06:54.486Z,29856
2017-07-30T13:07:55.406Z,34208
2017-07-30T13:08:56.078Z,37664
2017-07-30T13:09:56.750Z,64128
2017-07-30T13:10:57.424Z,68704
2017-07-30T13:11:58.096Z,78304
2017-07-30T13:12:59.018Z,103040
2017-07-30T13:13:59.688Z,91360
2017-07-30T13:15:00.357Z,57824
2017-07-30T13:16:01.030Z,122144
2017-07-30T13:17:01.703Z,115296
2017-07-30T13:18:02.676Z,113696
2017-07-30T13:19:03.348Z,163456
2017-07-30T13:20:04.018Z,127104
2017-07-30T13:21:04.690Z,133792
2017-07-30T13:22:05.360Z,118560
2017-07-30T13:23:06.330Z,49792
2017-07-30T13:24:07.001Z,103808
2017-07-30T13:25:07.676Z,145216
2017-07-30T13:26:08.356Z,46080
2017-07-30T13:27:09.016Z,30720
2017-07-30T13:28:09.987Z,26176
2017-07-30T13:29:10.658Z,101248
2017-07-30T13:30:11.330Z,167872
2017-07-30T13:31:12.001Z,157216
2017-07-30T13:32:12.674Z,153248
2017-07-30T13:33:13.596Z,26624